Thunder radar more information blitzortung!


Radar de pluja more information rain snow radar


Visita la nostra xarxa de llocs de meteo:

Template documentation
and downloads

And another site



No particular awareness of the weather is required.    There are no Weather-warnings

Pagina Historial Weather Underground text

Diari Resum January 30, 2018 Unitats:  Mètric    Imperial   Tant
« Previous Dia
SegĂźent Dia »
Diari Setmana Mensual Anual Personalitzada
  Maxima: Minima: Media:
Temperatura: -17.8 °C -16.2 °C -12.2 °C
Punt de rosada: -17.8 °C -18.1 °C -15.6 °C
Humitat: Humidity % 53 % 66 %
Wind Speed: 0 km/h 0 km/h 5.5 km/h
RĂ fegues de vent: 0 km/h - -
Vent:- - NE
Pression baro: 0 hPa 34740.4 hPa -
Precipitacions: 0 mm    
Historical Graphs
 
 
Dades de taula per January 30, 2018
Temps Temperatura Punt de rosada Pression baro Vent Wind Speed RĂ fegues de vent Humitat Rainfall Rate (Hourly)
-17.8 °C -17.8 °C 0 hPa Calm     Humidity % 0 mm
00:02 -13.6 °C -16.9 °C 35001.1 hPa North 5.1 km/h 5.1 km/h 66 % 0 mm
00:05 -15.7 °C -17.7 °C 34946.9 hPa North 2.6 km/h 5.1 km/h 77 % 0 mm
00:07 -13.9 °C -17.2 °C 35001.1 hPa North 6 km/h 6 km/h 66 % 0 mm
00:12 -14 °C -17.2 °C 35001.1 hPa North 3.7 km/h 3.7 km/h 67 % 0 mm
00:15 -15.7 °C -17.7 °C 34946.9 hPa North 2.6 km/h 2.6 km/h 77 % 0 mm
00:17 -14.1 °C -17.2 °C 35001.1 hPa Calm     67 % 0 mm
00:22 -14.1 °C -17.1 °C 35001.1 hPa North 6.3 km/h 6.3 km/h 68 % 0 mm
00:25 -15.7 °C -17.6 °C 34946.9 hPa North 5.1 km/h 5.1 km/h 78 % 0 mm
00:27 -14.2 °C -17.4 °C 35001.1 hPa North 9 km/h 9 km/h 67 % 0 mm
00:32 -14.3 °C -17.4 °C 35001.1 hPa North 6 km/h 6 km/h 67 % 0 mm
00:35 -15.8 °C -17.9 °C 34946.9 hPa North 2.6 km/h 5.1 km/h 77 % 0 mm
00:37 -14.3 °C -17.3 °C 35001.1 hPa North 5.6 km/h 5.6 km/h 68 % 0 mm
00:45 -15.9 °C -17.9 °C 34946.9 hPa Calm   5.1 km/h 77 % 0 mm
00:55 -15.7 °C -17.7 °C 34946.9 hPa North 5.1 km/h 7.7 km/h 77 % 0 mm
01:05 -15.8 °C -17.7 °C 34946.9 hPa North 2.6 km/h 2.6 km/h 78 % 0 mm
01:15 -15.8 °C -17.7 °C 34946.9 hPa Calm   7.7 km/h 78 % 0 mm
01:35 -15.8 °C -17.8 °C 34946.9 hPa Calm   2.6 km/h 78 % 0 mm
01:45 -15.8 °C -17.8 °C 34946.9 hPa Calm   2.6 km/h 78 % 0 mm
01:55 -15.8 °C -17.7 °C 34946.9 hPa North 2.6 km/h 5.1 km/h 78 % 0 mm
02:05 -15.8 °C -17.6 °C 34946.9 hPa Calm   2.6 km/h 79 % 0 mm
02:15 -15.8 °C -17.7 °C 34946.9 hPa North 2.6 km/h 2.6 km/h 79 % 0 mm
02:25 -15.8 °C -17.7 °C 34946.9 hPa North 2.6 km/h 2.6 km/h 79 % 0 mm
02:35 -15.8 °C -17.6 °C 34946.9 hPa Calm   5.1 km/h 79 % 0 mm
02:45 -15.6 °C -17.4 °C 34946.9 hPa Calm   5.1 km/h 79 % 0 mm
02:55 -15.3 °C -17.1 °C 34946.9 hPa North 2.6 km/h 2.6 km/h 80 % 0 mm
03:15 -15.2 °C -17 °C 34946.9 hPa Calm   5.1 km/h 79 % 0 mm
03:25 -14.6 °C -16.3 °C 34946.9 hPa Calm     80 % 0 mm
03:35 -14.4 °C -16.4 °C 34946.9 hPa North 2.6 km/h 5.1 km/h 78 % 0 mm
03:45 -14.2 °C -16.3 °C 34946.9 hPa North 2.6 km/h 2.6 km/h 77 % 0 mm
03:55 -14.1 °C -16.2 °C 34946.9 hPa Calm   5.1 km/h 77 % 0 mm
04:05 -13.7 °C -15.9 °C 34946.9 hPa Calm   5.1 km/h 75 % 0 mm
04:15 -13.8 °C -16.2 °C 34946.9 hPa Calm   5.1 km/h 74 % 0 mm
04:25 -13.6 °C -15.9 °C 34967.2 hPa North 2.6 km/h 5.1 km/h 74 % 0 mm
04:35 -13.2 °C -15.7 °C 34946.9 hPa Calm   2.6 km/h 73 % 0 mm
10:40 -13.1 °C -15.7 °C 34946.9 hPa North 6 km/h 6 km/h 72 % 0 mm
10:45 -12.9 °C -15.6 °C 34946.9 hPa North 6 km/h 6 km/h 72 % 0 mm
10:50 -12.7 °C -15.5 °C 34946.9 hPa North 6 km/h 6 km/h 71 % 0 mm
10:55 -12.7 °C -15.6 °C 34946.9 hPa ENE 9 km/h 9 km/h 70 % 0 mm
11:00 -12.7 °C -15.7 °C 34967.2 hPa ENE 11.9 km/h 11.9 km/h 69 % 0 mm
11:05 -12.7 °C -15.6 °C 34967.2 hPa NNE 9 km/h 9 km/h 70 % 0 mm
11:10 -12.6 °C -15.6 °C 34967.2 hPa ENE 11.9 km/h 11.9 km/h 69 % 0 mm
11:15 -12.7 °C -15.8 °C 34946.9 hPa NE 11.9 km/h 11.9 km/h 68 % 0 mm
11:20 -12.6 °C -15.7 °C 34946.9 hPa ENE 11.9 km/h 11.9 km/h 68 % 0 mm
11:25 -12.3 °C -15.4 °C 34946.9 hPa NNE 9.8 km/h 9.8 km/h 68 % 0 mm
11:30 -12.3 °C -15.5 °C 34946.9 hPa NNE 11.9 km/h 11.9 km/h 67 % 0 mm
11:35 -12.1 °C -15.3 °C 34946.9 hPa NE 11.9 km/h 11.9 km/h 67 % 0 mm
11:40 -11.9 °C -15.2 °C 34946.9 hPa ENE 11.9 km/h 11.9 km/h 67 % 0 mm
11:45 -11.8 °C -15.2 °C 34899.5 hPa NE 9 km/h 9 km/h 66 % 0 mm
11:50 -11.7 °C -15.2 °C 34899.5 hPa ENE 9.3 km/h 9.8 km/h 65 % 0 mm
11:55 -11.6 °C -15.1 °C 34899.5 hPa NE 11.9 km/h 11.9 km/h 65 % 0 mm
12:00 -11.6 °C -15.2 °C 34899.5 hPa NE 15 km/h 15 km/h 64 % 0 mm
12:05 -11.3 °C -14.8 °C 34899.5 hPa ENE 6 km/h 6 km/h 65 % 0 mm
12:10 -11.2 °C -14.9 °C 34899.5 hPa NNE 9.3 km/h 9.3 km/h 64 % 0 mm
12:15 -11.2 °C -14.9 °C 34946.9 hPa NNE 9 km/h 9 km/h 64 % 0 mm
12:20 -11.1 °C -14.7 °C 34946.9 hPa North 6 km/h 6 km/h 64 % 0 mm
12:25 -11.1 °C -14.9 °C 34946.9 hPa ENE 6 km/h 6 km/h 63 % 0 mm
12:30 -10.8 °C -14.6 °C 34946.9 hPa ENE 5.1 km/h   63 % 0 mm
12:35 -10.8 °C -14.6 °C 34946.9 hPa ENE 7.6 km/h 7.6 km/h 63 % 0 mm
12:40 -10.8 °C -14.8 °C 34946.9 hPa ENE 6 km/h 6 km/h 62 % 0 mm
12:45 -10.7 °C -14.5 °C 34899.5 hPa ENE 6.3 km/h 6.3 km/h 63 % 0 mm
12:50 -10.7 °C -14.6 °C 34899.5 hPa ENE 6 km/h 6 km/h 62 % 0 mm
12:55 -10.5 °C -14.4 °C 34899.5 hPa ENE 9 km/h 9 km/h 62 % 0 mm
13:00 -10.5 °C -14.6 °C 34899.5 hPa ENE 9 km/h 9 km/h 61 % 0 mm
13:05 -10.3 °C -14.4 °C 34899.5 hPa ENE 9 km/h 9 km/h 61 % 0 mm
13:10 -10.3 °C -14.4 °C 34899.5 hPa ENE 9.3 km/h 9.3 km/h 61 % 0 mm
13:15 -10.2 °C -14.3 °C 34899.5 hPa ENE 9 km/h 9 km/h 61 % 0 mm
13:20 -10.1 °C -14.2 °C 34899.5 hPa NE 11.9 km/h 11.9 km/h 61 % 0 mm
13:25 -10 °C -14.1 °C 34899.5 hPa NE 9.8 km/h 9.8 km/h 61 % 0 mm
13:30 -10.1 °C -14.3 °C 34875.8 hPa NE 6.8 km/h 6.8 km/h 60 % 0 mm
13:35 -9.8 °C -14.1 °C 34875.8 hPa NE 4.2 km/h 4.2 km/h 60 % 0 mm
13:40 -9.7 °C -14 °C 34875.8 hPa NE 9 km/h 9 km/h 60 % 0 mm
13:45 -9.7 °C -14.2 °C 34875.8 hPa NE 15 km/h 15 km/h 58 % 0 mm
13:50 -9.6 °C -14.1 °C 34875.8 hPa NE 9 km/h 9 km/h 58 % 0 mm
13:55 -9.6 °C -14.3 °C 34875.8 hPa NE 9 km/h 9 km/h 57 % 0 mm
14:00 -9.6 °C -14.3 °C 34875.8 hPa NE 11.9 km/h 11.9 km/h 57 % 0 mm
14:05 -9.6 °C -14.1 °C 34875.8 hPa NE 9 km/h 9 km/h 58 % 0 mm
14:10 -9.6 °C -14.3 °C 34875.8 hPa NE 11.9 km/h 11.9 km/h 57 % 0 mm
14:15 -9.4 °C -14 °C 34875.8 hPa NE 6.3 km/h 6.3 km/h 58 % 0 mm
14:20 -9.4 °C -13.9 °C 34875.8 hPa NE 6 km/h 6 km/h 58 % 0 mm
14:25 -9.3 °C -13.8 °C 34875.8 hPa NE 11.6 km/h 11.6 km/h 58 % 0 mm
14:30 -9.1 °C -13.7 °C 34875.8 hPa NE 6 km/h 6 km/h 58 % 0 mm
14:35 -8.9 °C -13.5 °C 34875.8 hPa NE 6 km/h 6 km/h 58 % 0 mm
14:40 -8.9 °C -13.7 °C 34875.8 hPa NE 9 km/h 9 km/h 57 % 0 mm
14:45 -8.9 °C -13.5 °C 34875.8 hPa NE 6 km/h 6 km/h 58 % 0 mm
14:50 -8.8 °C -13.2 °C 34875.8 hPa NE 15 km/h 15 km/h 59 % 0 mm
14:55 -8.6 °C -13.2 °C 34875.8 hPa NE 15 km/h 15 km/h 58 % 0 mm
15:00 -8.7 °C -13.4 °C 34875.8 hPa NE 15 km/h 15 km/h 57 % 0 mm
15:05 -8.8 °C -13.7 °C 34875.8 hPa NE 17.9 km/h 17.9 km/h 56 % 0 mm
15:10 -8.8 °C -13.7 °C 34875.8 hPa NE 11.9 km/h 11.9 km/h 56 % 0 mm
15:15 -8.7 °C -13.6 °C 34875.8 hPa NE 15 km/h 15 km/h 56 % 0 mm
15:20 -8.6 °C -13.5 °C 34875.8 hPa NE 9 km/h 9 km/h 56 % 0 mm
15:25 -8.6 °C -13.4 °C 34875.8 hPa NE 19.2 km/h 19.2 km/h 56 % 0 mm
15:30 -8.6 °C -13.6 °C 34875.8 hPa NE 15 km/h 15 km/h 55 % 0 mm
15:35 -8.5 °C -13.7 °C 34875.8 hPa NE 10.3 km/h 10.3 km/h 54 % 0 mm
15:40 -8.5 °C -13.7 °C 34875.8 hPa NE 15 km/h 15 km/h 54 % 0 mm
15:45 -8.6 °C -13.8 °C 34875.8 hPa NE 11.9 km/h 11.9 km/h 54 % 0 mm
15:50 -8.5 °C -13.7 °C 34875.8 hPa NE 15 km/h 15 km/h 54 % 0 mm
15:55 -8.3 °C -13.7 °C 34875.8 hPa NE 6.3 km/h 6.3 km/h 53 % 0 mm
16:00 -8.3 °C -13.7 °C 34875.8 hPa NE 9 km/h 9 km/h 53 % 0 mm
16:05 -8.4 °C -13.7 °C 34875.8 hPa NE 11.9 km/h 11.9 km/h 54 % 0 mm
16:10 -8.4 °C -13.7 °C 34875.8 hPa NE 11.9 km/h 11.9 km/h 54 % 0 mm
16:15 -8.5 °C -13.7 °C 34875.8 hPa NE 11.9 km/h 11.9 km/h 54 % 0 mm
16:20 -8.5 °C -13.7 °C 34875.8 hPa NE 7.6 km/h 7.6 km/h 54 % 0 mm
16:25 -8.6 °C -13.8 °C 34875.8 hPa NE 15 km/h 15 km/h 54 % 0 mm
16:30 -8.7 °C -13.9 °C 34875.8 hPa NE 17.9 km/h 17.9 km/h 54 % 0 mm
16:35 -8.8 °C -13.9 °C 34875.8 hPa NE 11.9 km/h 11.9 km/h 54 % 0 mm
16:40 -8.9 °C -14.1 °C 34875.8 hPa NE 15 km/h 15 km/h 54 % 0 mm
16:45 -8.9 °C -14.1 °C 34875.8 hPa NE 15 km/h 15 km/h 54 % 0 mm
16:50 -9.1 °C -14.3 °C 34875.8 hPa NE 11.1 km/h 11.1 km/h 54 % 0 mm
16:55 -9.2 °C -14.2 °C 34875.8 hPa NE 15 km/h 15 km/h 55 % 0 mm
17:00 -9.2 °C -14.2 °C 34875.8 hPa NE 11.9 km/h 11.9 km/h 55 % 0 mm
17:05 -9.3 °C -14.3 °C 34875.8 hPa NE 9.3 km/h 9.8 km/h 55 % 0 mm
17:07 -9.3 °C -14.3 °C 34875.8 hPa NE 15 km/h 15 km/h 55 % 0 mm
17:12 -9.4 °C -14.4 °C 34875.8 hPa NE 15 km/h 15 km/h 55 % 0 mm
17:17 -9.5 °C -14.3 °C 34841.9 hPa NE 11.9 km/h 11.9 km/h 56 % 0 mm
17:22 -9.6 °C -14.4 °C 34841.9 hPa NE 14.5 km/h 14.5 km/h 56 % 0 mm
17:27 -9.7 °C -14.5 °C 34841.9 hPa NE 8 km/h 9.3 km/h 56 % 0 mm
17:32 -9.7 °C -14.6 °C 34841.9 hPa NE 9 km/h 9 km/h 56 % 0 mm
17:37 -9.9 °C -14.6 °C 34841.9 hPa NE 9 km/h 9 km/h 57 % 0 mm
17:42 -10 °C -14.7 °C 34841.9 hPa NE 11.9 km/h 11.9 km/h 57 % 0 mm
17:47 -10.1 °C -14.8 °C 34841.9 hPa NE 9 km/h 9 km/h 57 % 0 mm
17:52 -10.2 °C -14.7 °C 34841.9 hPa NE 9 km/h 9 km/h 58 % 0 mm
17:57 -10.3 °C -14.8 °C 34841.9 hPa NE 6 km/h 6 km/h 58 % 0 mm
18:02 -10.5 °C -14.8 °C 34841.9 hPa NE 6 km/h 6 km/h 59 % 0 mm
18:07 -10.6 °C -14.9 °C 34841.9 hPa NE 6 km/h 6 km/h 59 % 0 mm
18:12 -10.7 °C -14.9 °C 34841.9 hPa NE 6 km/h 6.3 km/h 60 % 0 mm
18:17 -10.8 °C -14.9 °C 34875.8 hPa NE 11.9 km/h 11.9 km/h 60 % 0 mm
18:22 -10.8 °C -15.1 °C 34875.8 hPa NE 6 km/h 6 km/h 60 % 0 mm
18:27 -10.9 °C -15 °C 34875.8 hPa NE 6 km/h 6 km/h 61 % 0 mm
18:32 -11.1 °C -15.1 °C 34875.8 hPa NE 6 km/h 6 km/h 61 % 0 mm
18:37 -11.1 °C -15.2 °C 34875.8 hPa NE 6.3 km/h 6.3 km/h 61 % 0 mm
18:42 -11.2 °C -15.1 °C 34875.8 hPa NE 6 km/h 6 km/h 62 % 0 mm
18:47 -11.2 °C -15.2 °C 34875.8 hPa NE 6.3 km/h 6.3 km/h 62 % 0 mm
18:52 -11.3 °C -15.1 °C 34875.8 hPa NE 3.1 km/h   63 % 0 mm
18:57 -11.4 °C -15.2 °C 34875.8 hPa Calm     63 % 0 mm
19:02 -11.4 °C -15.2 °C 34841.9 hPa NE 3.1 km/h   63 % 0 mm
19:07 -11.5 °C -15.3 °C 34841.9 hPa NE 6 km/h   63 % 0 mm
19:12 -11.5 °C -15.3 °C 34841.9 hPa NE 6 km/h 6 km/h 63 % 0 mm
19:17 -11.5 °C -15.3 °C 34875.8 hPa NE 6 km/h 6 km/h 63 % 0 mm
19:22 -11.6 °C -15.3 °C 34875.8 hPa NE 4.2 km/h 4.2 km/h 63 % 0 mm
19:27 -11.6 °C -15.2 °C 34875.8 hPa NE 6 km/h 6 km/h 64 % 0 mm
19:32 -11.6 °C -15.2 °C 34875.8 hPa NE 6 km/h   64 % 0 mm
19:37 -11.7 °C -15.3 °C 34875.8 hPa NE 3.7 km/h 3.7 km/h 64 % 0 mm
19:42 -11.7 °C -15.3 °C 34875.8 hPa Calm     64 % 0 mm
19:47 -11.7 °C -15.2 °C 34875.8 hPa NE 4.2 km/h 4.2 km/h 65 % 0 mm
19:52 -11.8 °C -15.3 °C 34875.8 hPa Calm     65 % 0 mm
19:57 -11.8 °C -15.3 °C 34875.8 hPa NE 3.1 km/h   65 % 0 mm
20:02 -11.9 °C -15.5 °C 34875.8 hPa NE 3.1 km/h 3.1 km/h 64 % 0 mm
20:07 -11.9 °C -15.4 °C 34875.8 hPa NE 3.1 km/h 3.1 km/h 65 % 0 mm
20:12 -12 °C -15.5 °C 34875.8 hPa Calm     65 % 0 mm
20:17 -12.1 °C -15.6 °C 34875.8 hPa Calm     65 % 0 mm
20:22 -12.2 °C -15.6 °C 34875.8 hPa Calm     66 % 0 mm
20:27 -12.3 °C -15.7 °C 34875.8 hPa NE 6 km/h   66 % 0 mm
20:32 -12.5 °C -15.9 °C 34875.8 hPa NE 4.2 km/h 4.2 km/h 66 % 0 mm
20:35 -15.2 °C -17.1 °C 34774.2 hPa Calm   5.1 km/h 79 % 0 mm
20:37 -12.6 °C -15.8 °C 34875.8 hPa NE 3.1 km/h 3.1 km/h 67 % 0 mm
20:42 -12.6 °C -15.8 °C 34875.8 hPa NE 3.7 km/h 3.7 km/h 67 % 0 mm
20:45 -15.3 °C -17.1 °C 34774.2 hPa Calm     79 % 0 mm
20:47 -12.6 °C -15.8 °C 34875.8 hPa NE 4.2 km/h 4.2 km/h 67 % 0 mm
20:52 -12.6 °C -15.7 °C 34875.8 hPa NE 3.1 km/h 3.1 km/h 68 % 0 mm
20:55 -15.4 °C -17.2 °C 34808.1 hPa Calm     79 % 0 mm
20:57 -12.7 °C -15.8 °C 34875.8 hPa NE 3.1 km/h 3.1 km/h 68 % 0 mm
21:02 -12.7 °C -15.7 °C 34875.8 hPa Calm     69 % 0 mm
21:05 -15.4 °C -17.3 °C 34808.1 hPa NE 2.6 km/h 5.1 km/h 79 % 0 mm
21:07 -12.8 °C -15.8 °C 34875.8 hPa Calm     69 % 0 mm
21:12 -12.8 °C -15.8 °C 34875.8 hPa Calm     69 % 0 mm
21:15 -15.4 °C -17.3 °C 34808.1 hPa Calm     79 % 0 mm
21:17 -12.9 °C -15.9 °C 34875.8 hPa Calm     69 % 0 mm
21:22 -12.9 °C -15.9 °C 34875.8 hPa Calm     69 % 0 mm
21:25 -15.4 °C -17.2 °C 34808.1 hPa Calm   5.1 km/h 79 % 0 mm
21:27 -13 °C -16 °C 34875.8 hPa NE 3.7 km/h 3.7 km/h 69 % 0 mm
21:32 -13.1 °C -16.1 °C 34875.8 hPa NE 3.1 km/h 3.1 km/h 69 % 0 mm
21:35 -15.4 °C -17.2 °C 34808.1 hPa NE 2.6 km/h 2.6 km/h 79 % 0 mm
21:37 -13.1 °C -16.1 °C 34875.8 hPa NE 3.1 km/h   69 % 0 mm
21:42 -13.1 °C -16 °C 34875.8 hPa Calm     70 % 0 mm
21:45 -15.4 °C -17.3 °C 34808.1 hPa NE 2.6 km/h 2.6 km/h 79 % 0 mm
21:47 -13.2 °C -16 °C 34875.8 hPa Calm     70 % 0 mm
21:52 -13.2 °C -15.9 °C 34875.8 hPa Calm     71 % 0 mm
21:55 -15.6 °C -17.4 °C 34808.1 hPa NE 2.6 km/h 2.6 km/h 79 % 0 mm
21:57 -13.2 °C -15.9 °C 34875.8 hPa Calm     71 % 0 mm
22:02 -13.3 °C -16 °C 34841.9 hPa Calm     71 % 0 mm
22:05 -15.6 °C -17.4 °C 34808.1 hPa NE 2.6 km/h 2.6 km/h 79 % 0 mm
22:07 -13.3 °C -16.1 °C 34841.9 hPa Calm     71 % 0 mm
22:12 -13.3 °C -15.9 °C 34841.9 hPa Calm     72 % 0 mm
22:15 -15.8 °C -17.6 °C 34808.1 hPa NE 2.6 km/h 7.7 km/h 79 % 0 mm
22:17 -13.3 °C -15.9 °C 34875.8 hPa Calm     72 % 0 mm
22:22 -13.4 °C -16 °C 34875.8 hPa Calm     72 % 0 mm
22:25 -15.9 °C -17.7 °C 34774.2 hPa NE 2.6 km/h 5.1 km/h 79 % 0 mm
22:27 -13.4 °C -16 °C 34875.8 hPa Calm     72 % 0 mm
22:32 -13.4 °C -15.9 °C 34875.8 hPa Calm     73 % 0 mm
22:35 -15.9 °C -17.8 °C 34774.2 hPa Calm   2.6 km/h 79 % 0 mm
22:37 -13.5 °C -16 °C 34875.8 hPa Calm     73 % 0 mm
22:42 -13.6 °C -16.1 °C 34875.8 hPa Calm     73 % 0 mm
22:45 -16.1 °C -17.9 °C 34774.2 hPa Calm     79 % 0 mm
22:47 -13.6 °C -16 °C 34841.9 hPa NE 3.1 km/h   74 % 0 mm
22:52 -13.7 °C -16.1 °C 34841.9 hPa Calm     74 % 0 mm
22:55 -16.1 °C -17.9 °C 34774.2 hPa Calm     79 % 0 mm
22:57 -13.7 °C -16.2 °C 34841.9 hPa Calm     74 % 0 mm
23:02 -13.8 °C -16.2 °C 34875.8 hPa NE 3.1 km/h 3.1 km/h 74 % 0 mm
23:05 -16.2 °C -18 °C 34774.2 hPa Calm     79 % 0 mm
23:07 -13.8 °C -16.2 °C 34875.8 hPa Calm     74 % 0 mm
23:12 -13.9 °C -16.2 °C 34875.8 hPa Calm     75 % 0 mm
23:15 -16.1 °C -17.9 °C 34774.2 hPa Calm     79 % 0 mm
23:17 -14 °C -16.3 °C 34875.8 hPa Calm     75 % 0 mm
23:22 -14.1 °C -16.4 °C 34875.8 hPa Calm     74 % 0 mm
23:25 -16.2 °C -18.1 °C 34774.2 hPa Calm     79 % 0 mm
23:27 -14.2 °C -16.6 °C 34875.8 hPa Calm     74 % 0 mm
23:32 -14.2 °C -16.4 °C 34875.8 hPa Calm     75 % 0 mm
23:35 -16.2 °C -17.9 °C 34740.4 hPa Calm     80 % 0 mm
23:37 -14.2 °C -16.4 °C 34875.8 hPa Calm     75 % 0 mm
23:42 -14.2 °C -16.3 °C 34875.8 hPa Calm     76 % 0 mm
23:45 -16.1 °C -17.9 °C 34740.4 hPa NE 2.6 km/h 5.1 km/h 79 % 0 mm
23:47 -14.2 °C -16.3 °C 34875.8 hPa Calm     76 % 0 mm
23:52 -14.3 °C -16.4 °C 34875.8 hPa Calm     76 % 0 mm
23:55 -16.2 °C -18 °C 34774.2 hPa Calm   2.6 km/h 79 % 0 mm
23:57 -14.3 °C -16.5 °C 34875.8 hPa NE 6 km/h 6 km/h 76 % 0 mm
Meteo Sesrovires
Elogis d' Weather Underground - 1.5 mb

Guio original per  Jim McMurry - jmcmurry@mwt.net Adaptat per a la plantilla per  Wim van der Kuil - Leuven-Template.eu

Trobareu la nostra informacio del temps tambe a:

Weather Underground

AWEKAS